.
WxDataArchive / Data Records for 2016-03-23
2016-03-22 March 2016 2016-03-24

Data Records for Wednesday, 23 March 2016

Time	Temp	Chill	HIndex	Humid	Dewpt	 Wind 	HiWind	WindDir	Rain 	Barom
-----	----	-----	------	-----	-----	------	------	-------	-----	-----
00:00	54.5	54.5	54.5	48	35.2	0	0	---	0.00	29.745 
00:05	54.2	54.2	54.2	49	35.5	0	0	---	0.00	29.745 
00:10	53.9	53.9	53.9	49	35.2	0	0	---	0.00	29.745 
00:15	53.6	53.6	53.6	50	35.4	0	0	---	0.00	29.744 
00:20	53.3	53.3	53.3	50	35.1	0	0	---	0.00	29.744 
00:25	53.1	53.1	53.1	51	35.5	0	0	---	0.00	29.744 
00:30	52.8	52.8	52.8	51	35.2	0	0	---	0.00	29.746 
00:35	52.5	52.5	52.5	52	35.4	0	0	---	0.00	29.746 
00:40	52.2	52.2	52.2	52	35.1	0	0	---	0.00	29.746 
00:45	52.0	52.0	52.0	52	34.9	0	0	---	0.00	29.747 
00:50	51.9	51.9	51.9	53	35.3	0	1	248	0.00	29.747 
00:55	51.9	51.9	51.9	52	34.8	0	1	248	0.00	29.747 
01:00	52.3	52.3	52.3	50	34.2	0	1	248	0.00	29.748 
01:05	52.6	52.6	52.6	50	34.5	0	1	248	0.00	29.748 
01:10	52.9	52.9	52.9	49	34.3	0	1	248	0.00	29.748 
01:15	53.2	53.2	53.2	48	34.0	0	1	248	0.00	29.750 
01:20	53.5	53.5	53.5	46	33.2	0	1	248	0.00	29.750 
01:25	53.8	53.8	53.8	46	33.5	0	1	248	0.00	29.750 
01:30	53.9	53.9	53.9	46	33.6	0	1	248	0.00	29.748 
01:35	53.9	53.9	53.9	46	33.6	0	1	248	0.00	29.748 
01:40	53.9	53.9	53.9	46	33.6	0	1	248	0.00	29.748 
01:45	53.8	53.8	53.8	46	33.5	0	1	248	0.00	29.753 
01:50	53.9	53.9	53.9	46	33.6	0	1	248	0.00	29.753 
01:55	53.8	53.8	53.8	46	33.5	0	1	248	0.00	29.753 
02:00	53.8	53.8	53.8	46	33.5	0	1	248	0.00	29.755 
02:05	53.6	53.6	53.6	46	33.3	0	1	248	0.00	29.755 
02:10	53.5	53.5	53.5	46	33.2	0	1	248	0.00	29.755 
02:15	53.5	53.5	53.5	46	33.2	0	0	---	0.00	29.753 
02:20	53.3	53.3	53.3	46	33.1	0	1	248	0.00	29.753 
02:25	53.3	53.3	53.3	46	33.1	0	1	248	0.00	29.753 
02:30	53.3	53.3	53.3	46	33.1	0	1	248	0.00	29.758 
02:35	53.3	53.3	53.3	46	33.1	0	1	248	0.00	29.758 
02:40	53.5	53.5	53.5	45	32.7	0	1	248	0.00	29.758 
02:45	53.5	53.5	53.5	46	33.2	0	1	248	0.00	29.757 
02:50	53.5	53.5	53.5	45	32.7	0	1	248	0.00	29.757 
02:55	53.5	53.5	53.5	45	32.7	0	4	248	0.00	29.757 
03:00	53.8	53.8	53.8	44	32.4	0	2	248	0.00	29.761 
03:05	53.9	53.9	53.9	44	32.5	0	1	248	0.00	29.761 
03:10	54.1	54.1	54.1	43	32.1	0	1	248	0.00	29.761 
03:15	54.2	54.2	54.2	43	32.2	0	2	248	0.00	29.762 
03:20	54.4	54.4	54.4	43	32.4	0	2	248	0.00	29.762 
03:25	54.5	54.5	54.5	42	31.9	0	1	248	0.00	29.762 
03:30	54.7	54.7	54.7	42	32.1	0	3	248	0.00	29.761 
03:35	54.8	54.8	54.8	42	32.2	0	1	248	0.00	29.761 
03:40	54.8	54.8	54.8	42	32.2	0	2	248	0.00	29.761 
03:45	54.8	54.8	54.8	42	32.2	0	2	248	0.00	29.758 
03:50	54.8	54.8	54.8	42	32.2	0	2	248	0.00	29.758 
03:55	54.7	54.7	54.7	42	32.1	0	2	248	0.00	29.758 
04:00	54.7	54.7	54.7	42	32.1	0	2	248	0.00	29.758 
04:05	54.5	54.5	54.5	42	31.9	0	1	248	0.00	29.758 
04:10	54.5	54.5	54.5	42	31.9	0	1	248	0.00	29.758 
04:15	54.4	54.4	54.4	43	32.4	0	4	248	0.00	29.757 
04:20	54.4	54.4	54.4	43	32.4	0	2	248	0.00	29.757 
04:25	54.4	54.4	54.4	43	32.4	0	2	248	0.00	29.757 
04:30	54.2	54.2	54.2	44	32.8	0	1	248	0.00	29.756 
04:35	54.1	54.1	54.1	44	32.7	0	1	248	0.00	29.756 
04:40	54.1	54.1	54.1	44	32.7	0	1	248	0.00	29.756 
04:45	53.9	53.9	53.9	44	32.5	0	1	248	0.00	29.756 
04:50	53.8	53.8	53.8	44	32.4	0	1	248	0.00	29.756 
04:55	53.6	53.6	53.6	44	32.2	0	1	248	0.00	29.756 
05:00	53.5	53.5	53.5	45	32.7	0	1	248	0.00	29.757 
05:05	53.5	53.5	53.5	45	32.7	0	1	248	0.00	29.757 
05:10	53.3	53.3	53.3	45	32.5	0	1	248	0.00	29.757 
05:15	53.3	53.3	53.3	45	32.5	0	1	248	0.00	29.758 
05:20	53.3	53.3	53.3	45	32.5	0	2	248	0.00	29.758 
05:25	53.3	53.3	53.3	46	33.1	0	1	248	0.00	29.758 
05:30	53.2	53.2	53.2	46	33.0	0	1	248	0.00	29.758 
05:35	53.1	53.1	53.1	46	32.9	0	1	248	0.00	29.758 
05:40	53.1	53.1	53.1	46	32.9	0	1	248	0.00	29.758 
05:45	53.1	53.1	53.1	46	32.9	0	1	248	0.00	29.758 
05:50	52.9	52.9	52.9	47	33.2	0	1	248	0.00	29.758 
05:55	52.9	52.9	52.9	47	33.2	0	1	248	0.00	29.758 
06:00	52.8	52.8	52.8	47	33.1	0	1	248	0.00	29.769 
06:05	52.6	52.6	52.6	47	32.9	0	1	248	0.00	29.769 
06:10	52.6	52.6	52.6	48	33.5	0	1	248	0.00	29.769 
06:15	52.3	52.3	52.3	49	33.7	0	1	248	0.00	29.774 
06:20	52.0	52.0	52.0	49	33.4	0	1	248	0.00	29.774 
06:25	51.9	51.9	51.9	49	33.3	0	1	248	0.00	29.774 
06:30	51.7	51.7	51.7	50	33.7	0	0	---	0.00	29.782 
06:35	51.4	51.4	51.4	50	33.4	0	1	248	0.00	29.782 
06:40	51.1	51.1	51.1	51	33.6	0	1	248	0.00	29.782 
06:45	50.8	50.8	50.8	51	33.3	0	1	248	0.00	29.781 
06:50	50.5	50.5	50.5	52	33.5	0	0	---	0.00	29.781 
06:55	50.2	50.2	50.2	52	33.3	0	0	---	0.00	29.781 
07:00	49.8	49.8	49.8	53	33.4	0	0	---	0.00	29.791 
07:05	49.5	49.5	49.5	54	33.6	0	0	---	0.00	29.791 
07:10	49.2	49.2	49.2	54	33.3	0	0	---	0.00	29.791 
07:15	48.8	48.8	48.8	55	33.4	0	0	---	0.00	29.793 
07:20	48.6	48.6	48.6	55	33.2	0	0	---	0.00	29.793 
07:25	48.3	48.3	48.3	56	33.3	0	0	---	0.00	29.793 
07:30	48.0	48.0	48.0	57	33.5	0	0	---	0.00	29.796 
07:35	47.9	47.9	47.9	57	33.4	0	0	---	0.00	29.796 
07:40	47.6	47.6	47.6	58	33.6	0	0	---	0.00	29.796 
07:45	47.3	47.3	47.3	59	33.7	0	0	---	0.00	29.804 
07:50	47.0	47.0	47.0	59	33.4	0	0	---	0.00	29.804 
07:55	46.8	46.8	46.8	60	33.7	0	0	---	0.00	29.804 
08:00	46.7	46.7	46.7	60	33.6	0	0	---	0.00	29.809 
08:05	46.5	46.5	46.5	62	34.2	0	0	---	0.00	29.809 
08:10	46.5	46.5	46.5	62	34.2	0	0	---	0.00	29.809 
08:15	46.5	46.5	46.5	62	34.2	0	0	---	0.00	29.813 
08:20	46.8	46.8	46.8	62	34.5	0	0	---	0.00	29.813 
08:25	47.3	47.3	47.3	64	35.7	0	0	---	0.00	29.813 
08:30	47.9	47.9	47.9	62	35.5	0	0	---	0.00	29.814 
08:35	48.3	48.3	48.3	61	35.5	0	0	---	0.00	29.814 
08:40	48.9	48.9	48.9	60	35.6	0	0	---	0.00	29.814 
08:45	49.4	49.4	49.4	60	36.1	0	1	248	0.00	29.823 
08:50	49.8	49.8	49.8	61	36.9	0	1	248	0.00	29.823 
08:55	50.2	50.2	50.2	60	36.9	0	1	248	0.00	29.823 
09:00	50.5	50.5	50.5	59	36.7	0	1	248	0.00	29.823 
09:05	50.8	50.8	50.8	59	37.0	0	1	248	0.00	29.823 
09:10	51.3	51.3	51.3	58	37.0	0	2	248	0.00	29.823 
09:15	51.6	51.6	51.6	57	36.9	0	1	248	0.00	29.827 
09:20	51.7	51.7	51.7	57	37.0	0	1	248	0.00	29.827 
09:25	52.0	52.0	52.0	56	36.8	0	0	---	0.00	29.827 
09:30	52.3	52.3	52.3	56	37.1	0	1	248	0.00	29.828 
09:35	52.6	52.6	52.6	56	37.4	0	1	248	0.00	29.828 
09:40	53.2	53.2	53.2	55	37.5	0	1	248	0.00	29.828 
09:45	53.9	53.9	53.9	54	37.6	0	2	248	0.00	29.823 
09:50	54.7	54.7	54.7	53	37.9	0	3	248	0.00	29.823 
09:55	55.0	55.0	55.0	53	38.2	0	2	248	0.00	29.823 
10:00	55.4	55.4	55.4	52	38.1	0	2	248	0.00	29.821 
10:05	55.7	55.7	55.7	50	37.3	1	3	248	0.00	29.821 
10:10	55.9	55.9	55.9	51	38.0	0	2	248	0.00	29.821 
10:15	56.6	56.6	56.6	49	37.7	1	2	248	0.00	29.828 
10:20	57.8	57.8	57.8	48	38.2	1	3	248	0.00	29.828 
10:25	58.6	58.6	58.6	48	39.0	1	3	248	0.00	29.828 
10:30	58.7	58.7	58.7	47	38.5	0	1	248	0.00	29.835 
10:35	58.7	58.7	58.7	46	38.0	0	2	248	0.00	29.835 
10:40	58.9	58.9	58.9	46	38.2	0	2	248	0.00	29.835 
10:45	59.2	59.2	59.2	47	39.0	0	2	248	0.00	29.838 
10:50	59.6	59.6	59.6	49	40.4	0	3	248	0.00	29.838 
10:55	59.8	59.8	59.8	48	40.1	1	3	202	0.00	29.838 
11:00	59.8	59.8	59.8	47	39.5	0	3	225	0.00	29.838 
11:05	59.9	59.9	59.9	50	41.2	1	3	225	0.00	29.838 
11:10	60.2	60.2	60.2	49	41.0	1	5	225	0.00	29.838 
11:15	60.4	60.4	60.4	49	41.1	2	6	248	0.00	29.838 
11:20	60.7	60.7	60.7	49	41.4	1	6	202	0.00	29.838 
11:25	61.2	61.2	61.2	50	42.4	1	3	315	0.00	29.838 
11:30	61.3	61.3	61.3	48	41.4	1	4	270	0.00	29.840 
11:35	61.6	61.6	61.6	49	42.3	1	3	270	0.00	29.840 
11:40	62.1	62.1	62.1	49	42.7	1	3	248	0.00	29.840 
11:45	62.6	62.6	62.6	48	42.6	1	6	68	0.00	29.838 
11:50	62.6	62.6	62.6	47	42.1	1	4	68	0.00	29.838 
11:55	62.4	62.4	62.4	49	43.0	1	3	270	0.00	29.838 
12:00	62.7	62.7	62.7	50	43.8	0	2	270	0.00	29.836 
12:05	63.4	63.4	63.4	50	44.4	0	2	270	0.00	29.836 
12:10	63.9	63.9	63.9	49	44.4	0	3	270	0.00	29.836 
12:15	64.5	64.5	64.5	50	45.4	0	3	270	0.00	29.834 
12:20	64.7	64.7	64.7	48	44.6	1	4	270	0.00	29.834 
12:25	64.2	64.2	64.2	49	44.6	2	4	270	0.00	29.834 
12:30	64.5	64.5	64.5	50	45.4	1	3	248	0.00	29.834 
12:35	64.8	64.8	64.8	50	45.7	2	5	248	0.00	29.834 
12:40	64.7	64.7	64.7	48	44.6	1	4	248	0.00	29.834 
12:45	64.7	64.7	64.7	49	45.1	1	5	248	0.00	29.832 
12:50	64.5	64.5	64.5	50	45.4	1	3	270	0.00	29.832 
12:55	64.5	64.5	64.5	49	44.9	1	5	270	0.00	29.832 
13:00	64.8	64.8	64.8	51	46.2	1	4	270	0.00	29.833 
13:05	65.2	65.2	65.2	49	45.6	0	2	270	0.00	29.833 
13:10	65.6	65.6	65.6	49	45.9	2	5	202	0.00	29.833 
13:15	65.8	65.8	65.8	50	46.6	1	3	270	0.00	29.821 
13:20	66.1	66.1	66.1	50	46.9	1	3	315	0.00	29.821 
13:25	66.3	66.3	66.3	49	46.6	1	3	315	0.00	29.821 
13:30	66.4	66.4	66.4	48	46.1	1	4	248	0.00	29.819 
13:35	66.9	66.9	66.9	48	46.6	1	5	248	0.00	29.819 
13:40	67.1	67.1	67.1	48	46.7	1	4	270	0.00	29.819 
13:45	67.3	67.3	67.3	50	48.0	1	3	270	0.00	29.817 
13:50	67.4	67.4	67.4	50	48.1	1	3	248	0.00	29.817 
13:55	67.4	67.4	67.4	49	47.6	1	7	90	0.00	29.817 
14:00	67.1	67.1	67.1	49	47.3	0	2	90	0.00	29.809 
14:05	67.1	67.1	67.1	48	46.7	1	4	112	0.00	29.809 
14:10	66.8	66.8	66.8	50	47.6	2	5	90	0.00	29.809 
14:15	66.4	66.4	66.4	48	46.1	1	3	90	0.00	29.800 
14:20	66.0	66.0	66.0	50	46.8	0	4	90	0.00	29.800 
14:25	66.0	66.0	66.0	54	48.9	1	6	90	0.00	29.800 
14:30	66.3	66.3	66.3	50	47.1	1	5	248	0.00	29.797 
14:35	66.0	66.0	66.0	50	46.8	1	4	90	0.00	29.797 
14:40	65.5	65.5	65.5	52	47.4	2	7	90	0.00	29.797 
14:45	65.0	65.0	65.0	51	46.4	0	3	270	0.00	29.794 
14:50	64.8	64.8	64.8	51	46.2	1	4	270	0.00	29.794 
14:55	64.8	64.8	64.8	51	46.2	1	4	270	0.00	29.794 
15:00	65.0	65.0	65.0	50	45.9	1	4	270	0.00	29.790 
15:05	65.0	65.0	65.0	50	45.9	2	6	248	0.00	29.790 
15:10	65.0	65.0	65.0	51	46.4	2	6	90	0.00	29.790 
15:15	64.8	64.8	64.8	53	47.3	0	3	90	0.00	29.785 
15:20	65.0	65.0	65.0	53	47.4	1	4	90	0.00	29.785 
15:25	65.0	65.0	65.0	52	46.9	1	8	90	0.00	29.785 
15:30	65.0	65.0	65.0	52	46.9	1	6	135	0.00	29.788 
15:35	64.8	64.8	64.8	52	46.8	1	6	90	0.00	29.788 
15:40	64.8	64.8	64.8	52	46.8	1	3	90	0.00	29.788 
15:45	64.5	64.5	64.5	53	47.0	1	3	68	0.00	29.785 
15:50	64.3	64.3	64.3	53	46.8	1	4	68	0.00	29.785 
15:55	64.2	64.2	64.2	52	46.2	1	5	90	0.00	29.785 
16:00	64.0	64.0	64.0	53	46.5	1	4	90	0.00	29.787 
16:05	64.2	64.2	64.2	53	46.7	2	11	90	0.00	29.787 
16:10	64.3	64.3	64.3	52	46.3	1	4	270	0.00	29.787 
16:15	64.5	64.5	64.5	53	47.0	1	3	270	0.00	29.793 
16:20	64.5	64.5	64.5	53	47.0	2	7	90	0.00	29.793 
16:25	64.3	64.3	64.3	54	47.3	1	7	90	0.00	29.793 
16:30	64.2	64.2	64.2	54	47.2	1	7	248	0.00	29.791 
16:35	63.9	63.9	63.9	54	46.9	1	5	248	0.00	29.791 
16:40	63.5	63.5	63.5	54	46.6	1	5	45	0.00	29.791 
16:45	63.4	63.4	63.4	55	46.9	1	6	248	0.00	29.797 
16:50	63.4	63.4	63.4	54	46.5	2	10	68	0.00	29.797 
16:55	63.4	63.4	63.4	55	46.9	1	5	270	0.00	29.797 
17:00	63.4	63.4	63.4	55	46.9	1	4	0	0.00	29.800 
17:05	63.4	63.4	63.4	55	46.9	1	6	112	0.00	29.800 
17:10	63.1	63.1	63.1	56	47.1	1	6	90	0.00	29.800 
17:15	62.9	62.9	62.9	55	46.5	1	4	90	0.00	29.801 
17:20	62.7	62.7	62.7	56	46.8	1	7	90	0.00	29.801 
17:25	62.6	62.6	62.6	56	46.7	1	4	68	0.00	29.801 
17:30	62.3	62.3	62.3	56	46.4	1	6	248	0.00	29.801 
17:35	62.1	62.1	62.1	56	46.2	1	5	270	0.00	29.801 
17:40	62.1	62.1	62.1	57	46.7	1	5	90	0.00	29.801 
17:45	61.8	61.8	61.8	58	46.9	2	9	90	0.00	29.803 
17:50	61.5	61.5	61.5	57	46.1	1	6	90	0.00	29.803 
17:55	61.5	61.5	61.5	57	46.1	1	6	292	0.00	29.803 
18:00	61.3	61.3	61.3	58	46.4	1	5	90	0.00	29.804 
18:05	61.2	61.2	61.2	58	46.3	2	5	112	0.00	29.804 
18:10	60.9	60.9	60.9	58	46.0	1	4	68	0.00	29.804 
18:15	60.7	60.7	60.7	59	46.3	1	3	45	0.00	29.812 
18:20	60.4	60.4	60.4	59	46.0	1	4	90	0.00	29.812 
18:25	60.2	60.2	60.2	59	45.8	0	2	90	0.00	29.812 
18:30	60.2	60.2	60.2	60	46.3	0	3	90	0.00	29.816 
18:35	60.1	60.1	60.1	60	46.2	1	3	248	0.00	29.816 
18:40	59.9	59.9	59.9	60	46.0	2	13	90	0.00	29.816 
18:45	59.8	59.8	59.8	60	45.9	1	4	248	0.00	29.822 
18:50	59.6	59.6	59.6	60	45.7	1	5	315	0.00	29.822 
18:55	59.6	59.6	59.6	61	46.1	1	4	112	0.00	29.822 
19:00	59.5	59.5	59.5	61	46.0	1	6	248	0.00	29.825 
19:05	59.5	59.5	59.5	61	46.0	1	3	248	0.00	29.825 
19:10	59.5	59.5	59.5	61	46.0	0	2	270	0.00	29.825 
19:15	59.3	59.3	59.3	61	45.8	0	2	270	0.00	29.829 
19:20	59.3	59.3	59.3	62	46.3	0	2	270	0.00	29.829 
19:25	59.2	59.2	59.2	62	46.2	0	2	270	0.00	29.829 
19:30	59.2	59.2	59.2	62	46.2	1	3	270	0.00	29.832 
19:35	59.0	59.0	59.0	63	46.4	0	1	270	0.00	29.832 
19:40	58.9	58.9	58.9	63	46.3	1	4	270	0.00	29.832 
19:45	58.7	58.7	58.7	63	46.1	0	2	270	0.00	29.828 
19:50	58.7	58.7	58.7	63	46.1	0	1	270	0.00	29.828 
19:55	58.7	58.7	58.7	63	46.1	0	2	270	0.00	29.828 
20:00	58.6	58.6	58.6	63	46.0	0	2	270	0.00	29.827 
20:05	58.6	58.6	58.6	63	46.0	0	2	270	0.00	29.827 
20:10	58.6	58.6	58.6	63	46.0	0	3	270	0.00	29.827 
20:15	58.4	58.4	58.4	63	45.9	0	2	270	0.00	29.827 
20:20	58.4	58.4	58.4	63	45.9	0	1	270	0.00	29.827 
20:25	58.4	58.4	58.4	63	45.9	0	3	270	0.00	29.827 
20:30	58.4	58.4	58.4	64	46.3	0	1	270	0.00	29.826 
20:35	58.4	58.4	58.4	64	46.3	0	2	270	0.00	29.826 
20:40	58.3	58.3	58.3	64	46.2	0	1	270	0.00	29.826 
20:45	58.1	58.1	58.1	64	46.0	0	2	270	0.00	29.827 
20:50	58.1	58.1	58.1	65	46.4	0	1	270	0.00	29.827 
20:55	58.0	58.0	58.0	65	46.3	0	1	270	0.00	29.827 
21:00	57.8	57.8	57.8	65	46.1	0	1	270	0.00	29.835 
21:05	57.6	57.6	57.6	66	46.3	0	1	270	0.00	29.835 
21:10	57.6	57.6	57.6	66	46.3	0	1	270	0.00	29.835 
21:15	57.5	57.5	57.5	66	46.2	0	2	270	0.00	29.838 
21:20	57.5	57.5	57.5	67	46.6	0	1	270	0.00	29.838 
21:25	57.3	57.3	57.3	68	46.8	0	1	270	0.00	29.838 
21:30	57.2	57.2	57.2	68	46.7	0	1	270	0.00	29.839 
21:35	57.0	57.0	57.0	68	46.5	0	1	270	0.00	29.839 
21:40	57.0	57.0	57.0	68	46.5	0	3	270	0.00	29.839 
21:45	57.0	57.0	57.0	69	46.9	0	1	270	0.00	29.838 
21:50	56.9	56.9	56.9	69	46.8	0	1	270	0.00	29.838 
21:55	56.7	56.7	56.7	69	46.6	0	2	270	0.00	29.838 
22:00	56.7	56.7	56.7	69	46.6	0	2	270	0.00	29.839 
22:05	56.7	56.7	56.7	70	47.0	0	2	270	0.00	29.839 
22:10	56.7	56.7	56.7	71	47.4	1	3	112	0.00	29.839 
22:15	55.1	55.1	55.1	67	44.3	1	3	112	0.00	29.836 
22:20	53.1	53.1	53.1	71	43.9	2	5	112	0.00	29.836 
22:25	51.6	51.6	51.6	75	43.9	2	4	112	0.00	29.836 
22:30	50.7	50.7	50.7	76	43.4	1	4	112	0.00	29.838 
22:35	49.9	49.9	49.9	77	43.0	0	3	45	0.00	29.838 
22:40	49.2	49.2	49.2	78	42.6	0	2	45	0.00	29.838 
22:45	48.6	48.6	48.6	80	42.7	0	3	68	0.00	29.841 
22:50	48.0	48.0	48.0	81	42.5	0	2	68	0.00	29.841 
22:55	47.6	47.6	47.6	82	42.4	0	1	68	0.00	29.841 
23:00	47.1	47.1	47.1	84	42.5	1	3	68	0.00	29.843 
23:05	46.8	46.8	46.8	85	42.5	0	3	90	0.00	29.843 
23:10	46.5	46.5	46.5	86	42.5	0	1	90	0.00	29.843 
23:15	46.4	46.4	46.4	87	42.7	1	3	90	0.00	29.841 
23:20	46.2	46.2	46.2	88	42.8	2	5	90	0.00	29.841 
23:25	46.0	46.0	46.0	89	42.9	1	3	90	0.00	29.841 
23:30	45.7	45.7	45.7	89	42.6	2	6	90	0.00	29.829 
23:35	45.5	45.5	45.5	90	42.7	1	4	90	0.00	29.829 
23:40	45.4	45.4	45.4	90	42.6	3	9	90	0.00	29.829 
23:45	45.1	45.1	45.1	91	42.6	3	7	90	0.00	29.809 
23:50	44.9	44.9	44.9	91	42.4	1	4	68	0.00	29.809 
23:55	44.8	44.8	44.8	92	42.6	3	9	90	0.00	29.809 

CoCoRaHS
IN-AL-39
A2 Web Hosting
Creative Commons License
GoDaddy
search engine by freefind advanced

loaded 2018-11-22 05:53:07 • last modified 2010-11-18 10:43:29
Privacy PolicyDisclaimer
• wx.awcolley.com is powered by PmWiki v.2002016 •
• all content (unless otherwise noted) © 2018 A W Colley